DW4721 Fema DK current weather conditions

sailwx.info

Wind from 330 at 14 knots gusting 26

Air temperature 6.1° C
Dewpoint 2.6° C

Last reported at 2018-Dec-10 03:16 UTC.
Time now 2018-Dec-10 04:13 UTC

Location: N 54°59' E 011°32'.
View on Google Maps.

See reports from other nearby stations

  
Tides and Currents Weather Stations Pressure Air Temp Water Temp Dewpoint Dewpoint Depression Visibility Wind Speed Wind Dir Waves Ship Positions
date/time (UTC)wind fromknots sea level pressurealtimeterstation pressurevisibilityair tempwater tempwave heightnotes
2018-Dec-10 03:16 330 14 gusting 26 6.1
2018-Dec-10 03:00 323 16 gusting 27 6.1
2018-Dec-10 02:46 321 15 gusting 27 6.1
2018-Dec-10 02:31 302 15 gusting 21 6.1
2018-Dec-10 02:15 339 17 gusting 27 6.1
2018-Dec-10 02:01 328 19 gusting 27 6.1
2018-Dec-10 01:45 313 14 gusting 26 6.1
2018-Dec-10 01:30 331 17 gusting 27 6.1
2018-Dec-10 01:15 315 14 gusting 24 6.1
2018-Dec-10 01:00 319 16 gusting 26 5.6
2018-Dec-10 00:45 319 13 gusting 21 5.6
2018-Dec-10 00:30 304 14 gusting 23 5.6
2018-Dec-10 00:15 314 16 gusting 24 5.6
2018-Dec-10 00:00 317 13 gusting 22 5.6
2018-Dec-09 23:45 322 13 gusting 23 5.6
2018-Dec-09 23:31 327 13 gusting 26 5.6
2018-Dec-09 23:17 319 14 gusting 21 5.6
2018-Dec-09 23:01 307 13 gusting 21 6.1
2018-Dec-09 22:46 304 13 gusting 23 6.1
2018-Dec-09 22:31 349 12 gusting 23 6.7
2018-Dec-09 22:17 325 11 gusting 19 6.7
2018-Dec-09 22:01 310 11 gusting 19 6.1
2018-Dec-09 21:46 311 9 gusting 17 6.1
2018-Dec-09 21:32 316 9 gusting 15 6.1
2018-Dec-09 21:16 306 9 gusting 15 6.1
2018-Dec-09 21:01 310 9 gusting 17 6.1
2018-Dec-09 20:46 315 12 gusting 19 6.1
2018-Dec-09 20:31 336 12 gusting 17 5.6
2018-Dec-09 20:16 348 13 gusting 20 6.1
2018-Dec-09 20:01 345 13 gusting 19 6.1
2018-Dec-09 19:45 342 18 gusting 25 5.6
2018-Dec-09 19:31 349 13 gusting 25 5.6
2018-Dec-09 19:15 342 17 gusting 24 5.6
2018-Dec-09 19:00 011 19 gusting 27 6.1
2018-Dec-09 18:45 029 19 gusting 27 6.1
2018-Dec-09 18:30 356 19 gusting 27 6.7
2018-Dec-09 18:15 354 16 gusting 27 6.7
2018-Dec-09 18:00 002 19 gusting 27 6.7
2018-Dec-09 17:33 354 11 gusting 19 6.7
2018-Dec-09 17:16 331 13 gusting 21 7.2
2018-Dec-09 17:01 315 13 gusting 20 7.2
2018-Dec-09 16:46 315 12 gusting 22 6.7
2018-Dec-09 16:31 315 14 gusting 20 7.2
2018-Dec-09 16:16 312 13 gusting 19 7.2
2018-Dec-09 16:01 290 8 gusting 18 7.2
2018-Dec-09 15:46 284 10 gusting 18 7.2
2018-Dec-09 15:31 282 8 gusting 15 7.2
2018-Dec-09 15:16 294 8 gusting 17 7.2
2018-Dec-09 15:01 274 9 gusting 19 7.2
2018-Dec-09 14:46 282 10 gusting 18 7.2
2018-Dec-09 14:30 275 10 gusting 18 7.2
2018-Dec-09 14:15 288 9 gusting 16 7.2
2018-Dec-09 14:01 284 7 gusting 13 7.2
2018-Dec-09 13:31 278 9 gusting 13 7.2
2018-Dec-09 13:15 275 8 gusting 13 7.2
2018-Dec-09 13:00 270 8 gusting 16 7.2
2018-Dec-09 12:45 273 9 gusting 13 7.2
2018-Dec-09 12:30 272 7 gusting 12 7.2
2018-Dec-09 12:15 265 7 gusting 12 7.2
2018-Dec-09 12:00 265 7 gusting 11 7.2
2018-Dec-09 11:45 269 6 gusting 11 7.2
2018-Dec-09 11:30 269 6 gusting 12 7.2
2018-Dec-09 11:15 284 7 gusting 11 7.2
2018-Dec-09 11:02 279 5 gusting 10 7.2
2018-Dec-09 10:46 273 3 gusting 10 7.2
2018-Dec-09 10:31 285 0 gusting 7 7.2
2018-Dec-09 10:16 271 0 gusting 6 7.2
2018-Dec-09 10:01 277 7.2
2018-Dec-09 09:46 285 7.2
2018-Dec-09 09:31 279 7.2
2018-Dec-09 09:16 296 7.2
2018-Dec-09 09:01 272 7.2
2018-Dec-09 08:46 271 7.2
2018-Dec-09 08:31 271 7.2
2018-Dec-09 08:16 265 7.2
2018-Dec-09 08:01 269 6.7
2018-Dec-09 07:46 282 6.7
2018-Dec-09 07:31 260 6.7
2018-Dec-09 07:15 265 6.7
2018-Dec-09 07:00 265 6.7
2018-Dec-09 06:45 271 6.7
2018-Dec-09 06:30 265 6.7
2018-Dec-09 06:15 265 6.7
2018-Dec-09 06:00 272 6.7
2018-Dec-09 05:45 255 6.7
2018-Dec-09 05:30 260 6.7
2018-Dec-09 05:16 265 6.7
2018-Dec-09 05:00 255 6.7
2018-Dec-09 04:46 265 1 gusting 7 6.7
2018-Dec-09 04:30 255 1 gusting 6 6.7
2018-Dec-09 04:15 247 1 gusting 7 6.7
2018-Dec-09 04:00 265 1 gusting 9 6.7
2018-Dec-09 03:45 241 3 gusting 8 6.7
2018-Dec-09 03:30 227 1 gusting 7 6.7
2018-Dec-09 03:15 248 1 gusting 6 6.7
2018-Dec-09 03:00 249 0 gusting 5 6.7
2018-Dec-09 02:45 255 0 gusting 6 6.7
2018-Dec-09 02:16 231 2 gusting 6 6.7
2018-Dec-09 02:01 236 0 gusting 5 6.7
2018-Dec-09 01:46 230 7.2
2018-Dec-09 01:32 228 0 gusting 6 7.2
2018-Dec-09 01:16 231 7.2
2018-Dec-09 01:01 234 7.2
2018-Dec-09 00:47 225 7.2
2018-Dec-09 00:31 246 7.2
2018-Dec-09 00:16 234 7.2
2018-Dec-09 00:01 215 7.2
2018-Dec-08 23:46 229 7.2
2018-Dec-08 23:31 231 7.2
2018-Dec-08 23:15 237 7.2
2018-Dec-08 23:01 247 7.2
2018-Dec-08 22:46 246 7.8
2018-Dec-08 22:30 255 7.8
2018-Dec-08 22:15 245 7.8
2018-Dec-08 22:01 248 7.2
2018-Dec-08 21:45 242 7.8
2018-Dec-08 21:30 255 7.8
2018-Dec-08 21:15 236 7.8
2018-Dec-08 21:00 255 7.8
2018-Dec-08 20:45 244 7.8
2018-Dec-08 20:30 265 7.8
2018-Dec-08 20:16 242 7.8
2018-Dec-08 20:00 244 7.8
2018-Dec-08 19:45 260 7.8
2018-Dec-08 19:30 260 7.8
2018-Dec-08 19:15 265 7.2
2018-Dec-08 19:00 269 7.8
2018-Dec-08 18:45 244 7.8
2018-Dec-08 18:30 244 7.8
2018-Dec-08 18:15 255 7.8
2018-Dec-08 18:00 269 7.8
2018-Dec-08 17:46 244 8.3
2018-Dec-08 17:30 260 7.8
2018-Dec-08 17:15 255 8.3
2018-Dec-08 17:00 255 8.3
2018-Dec-08 16:45 279 7.8
2018-Dec-08 16:30 233 7.8
2018-Dec-08 16:15 251 7.8
2018-Dec-08 16:00 246 7.8
2018-Dec-08 15:45 260 7.8
2018-Dec-08 15:30 239 7.8
2018-Dec-08 15:15 245 7.8
2018-Dec-08 15:00 241 7.8
2018-Dec-08 14:47 229 7.8
2018-Dec-08 14:33 233 7.8
2018-Dec-08 14:17 238 7.8
2018-Dec-08 14:01 229 7.8
2018-Dec-08 13:46 222 7.8
2018-Dec-08 13:31 221 7.2
2018-Dec-08 13:16 234 7.2
2018-Dec-08 13:01 241 7.2
2018-Dec-08 12:46 234 7.2
2018-Dec-08 12:31 236 7.2
2018-Dec-08 12:17 231 7.2
2018-Dec-08 12:01 245 7.2
2018-Dec-08 11:46 234 7.2
2018-Dec-08 11:31 240 7.2
2018-Dec-08 11:16 216 7.2
2018-Dec-08 11:00 237 7.2
2018-Dec-08 10:46 215 7.2
2018-Dec-08 10:31 196 7.2
2018-Dec-08 10:16 244 6.7
2018-Dec-08 10:01 226 6.7
2018-Dec-08 09:46 227 6.7
2018-Dec-08 09:31 246 6.7
2018-Dec-08 09:15 227 6.7
2018-Dec-08 09:01 220 6.7
2018-Dec-08 08:45 221 6.7
2018-Dec-08 08:30 242 6.7
2018-Dec-08 08:15 214 6.1
2018-Dec-08 08:00 228 6.1
2018-Dec-08 07:45 244 6.1
2018-Dec-08 07:30 193 5.6
2018-Dec-08 07:16 213 5.6
2018-Dec-08 07:01 234 5.6
2018-Dec-08 06:46 250 5.6
2018-Dec-08 06:30 247 6.1
2018-Dec-08 06:16 260 6.1
2018-Dec-08 06:00 239 6.1
2018-Dec-08 05:45 244 6.1
2018-Dec-08 05:30 247 6.1
2018-Dec-08 05:15 255 6.1
2018-Dec-08 05:00 255 6.1
2018-Dec-08 04:45 240 6.1
2018-Dec-08 04:30 235 6.1
2018-Dec-08 04:15 250 6.7
2018-Dec-08 04:00 237 6.7